sensor_id;sensor_type;location;lat;lon;timestamp;P1;durP1;ratioP1;P2;durP2;ratioP2
4424;SDS011;2225;53.568;13.266;2023-02-03T00:01:52;12.77;;;1.93;;
4424;SDS011;2225;53.568;13.266;2023-02-03T00:04:19;5.37;;;1.90;;
4424;SDS011;2225;53.568;13.266;2023-02-03T00:06:46;7.73;;;2.10;;
4424;SDS011;2225;53.568;13.266;2023-02-03T00:09:13;6.50;;;1.93;;
4424;SDS011;2225;53.568;13.266;2023-02-03T00:11:40;6.63;;;2.23;;
4424;SDS011;2225;53.568;13.266;2023-02-03T00:14:07;9.50;;;2.60;;
4424;SDS011;2225;53.568;13.266;2023-02-03T00:16:34;6.97;;;2.27;;
4424;SDS011;2225;53.568;13.266;2023-02-03T00:19:02;3.60;;;1.47;;
4424;SDS011;2225;53.568;13.266;2023-02-03T00:21:29;8.70;;;2.10;;
4424;SDS011;2225;53.568;13.266;2023-02-03T00:23:56;7.27;;;2.10;;
4424;SDS011;2225;53.568;13.266;2023-02-03T00:26:23;9.43;;;2.90;;
4424;SDS011;2225;53.568;13.266;2023-02-03T00:28:51;7.50;;;2.13;;
4424;SDS011;2225;53.568;13.266;2023-02-03T00:31:19;16.93;;;2.37;;
4424;SDS011;2225;53.568;13.266;2023-02-03T00:33:53;10.20;;;2.43;;
4424;SDS011;2225;53.568;13.266;2023-02-03T00:36:22;10.23;;;2.63;;
4424;SDS011;2225;53.568;13.266;2023-02-03T00:38:51;8.53;;;1.90;;
4424;SDS011;2225;53.568;13.266;2023-02-03T00:41:18;9.57;;;1.90;;
4424;SDS011;2225;53.568;13.266;2023-02-03T00:43:47;10.57;;;2.00;;
4424;SDS011;2225;53.568;13.266;2023-02-03T00:46:14;5.17;;;1.73;;
4424;SDS011;2225;53.568;13.266;2023-02-03T00:48:41;8.47;;;2.00;;
4424;SDS011;2225;53.568;13.266;2023-02-03T00:51:08;8.77;;;2.50;;
4424;SDS011;2225;53.568;13.266;2023-02-03T00:53:35;6.53;;;2.10;;
4424;SDS011;2225;53.568;13.266;2023-02-03T00:56:02;10.77;;;2.17;;
4424;SDS011;2225;53.568;13.266;2023-02-03T00:58:29;7.07;;;2.20;;
4424;SDS011;2225;53.568;13.266;2023-02-03T01:00:56;14.63;;;2.40;;
4424;SDS011;2225;53.568;13.266;2023-02-03T01:03:23;11.37;;;2.60;;
4424;SDS011;2225;53.568;13.266;2023-02-03T01:05:50;7.70;;;3.10;;
4424;SDS011;2225;53.568;13.266;2023-02-03T01:08:18;7.50;;;2.47;;
4424;SDS011;2225;53.568;13.266;2023-02-03T01:10:45;11.20;;;2.83;;
4424;SDS011;2225;53.568;13.266;2023-02-03T01:13:12;7.80;;;2.47;;
4424;SDS011;2225;53.568;13.266;2023-02-03T01:15:45;5.97;;;2.33;;
4424;SDS011;2225;53.568;13.266;2023-02-03T01:18:13;11.73;;;2.53;;
4424;SDS011;2225;53.568;13.266;2023-02-03T01:20:42;4.23;;;1.90;;
4424;SDS011;2225;53.568;13.266;2023-02-03T01:23:09;5.50;;;2.50;;
4424;SDS011;2225;53.568;13.266;2023-02-03T01:25:36;14.07;;;2.20;;
4424;SDS011;2225;53.568;13.266;2023-02-03T01:28:03;12.80;;;2.60;;
4424;SDS011;2225;53.568;13.266;2023-02-03T01:30:31;13.60;;;2.47;;
4424;SDS011;2225;53.568;13.266;2023-02-03T01:32:58;10.57;;;2.67;;
4424;SDS011;2225;53.568;13.266;2023-02-03T01:35:25;9.30;;;3.03;;
4424;SDS011;2225;53.568;13.266;2023-02-03T01:37:52;8.80;;;2.83;;
4424;SDS011;2225;53.568;13.266;2023-02-03T01:40:19;6.60;;;2.57;;
4424;SDS011;2225;53.568;13.266;2023-02-03T01:42:46;10.33;;;3.77;;
4424;SDS011;2225;53.568;13.266;2023-02-03T01:45:13;7.00;;;3.13;;
4424;SDS011;2225;53.568;13.266;2023-02-03T01:50:18;14.03;;;3.50;;
4424;SDS011;2225;53.568;13.266;2023-02-03T01:52:55;12.57;;;2.90;;
4424;SDS011;2225;53.568;13.266;2023-02-03T01:55:30;10.60;;;3.50;;
4424;SDS011;2225;53.568;13.266;2023-02-03T01:58:05;12.43;;;2.87;;
4424;SDS011;2225;53.568;13.266;2023-02-03T02:00:35;13.10;;;3.70;;
4424;SDS011;2225;53.568;13.266;2023-02-03T02:03:02;6.30;;;2.70;;
4424;SDS011;2225;53.568;13.266;2023-02-03T02:05:34;8.97;;;3.13;;
4424;SDS011;2225;53.568;13.266;2023-02-03T02:08:11;8.43;;;3.27;;
4424;SDS011;2225;53.568;13.266;2023-02-03T02:10:40;8.57;;;3.20;;
4424;SDS011;2225;53.568;13.266;2023-02-03T02:13:07;17.00;;;3.07;;
4424;SDS011;2225;53.568;13.266;2023-02-03T02:15:39;7.00;;;2.57;;
4424;SDS011;2225;53.568;13.266;2023-02-03T02:24:27;3.80;;;1.93;;
4424;SDS011;2225;53.568;13.266;2023-02-03T02:36:03;5.10;;;1.90;;
4424;SDS011;2225;53.568;13.266;2023-02-03T02:39:04;5.40;;;1.97;;
4424;SDS011;2225;53.568;13.266;2023-02-03T02:42:03;3.93;;;1.67;;
4424;SDS011;2225;53.568;13.266;2023-02-03T02:44:52;3.47;;;1.70;;
4424;SDS011;2225;53.568;13.266;2023-02-03T02:47:53;5.13;;;1.73;;
4424;SDS011;2225;53.568;13.266;2023-02-03T02:50:27;3.00;;;1.60;;
4424;SDS011;2225;53.568;13.266;2023-02-03T02:53:00;3.53;;;1.70;;
4424;SDS011;2225;53.568;13.266;2023-02-03T02:55:30;4.90;;;1.80;;
4424;SDS011;2225;53.568;13.266;2023-02-03T02:58:09;3.10;;;1.80;;
4424;SDS011;2225;53.568;13.266;2023-02-03T03:00:39;2.40;;;1.03;;
4424;SDS011;2225;53.568;13.266;2023-02-03T03:03:20;2.40;;;1.30;;
4424;SDS011;2225;53.568;13.266;2023-02-03T03:05:50;2.70;;;1.20;;
4424;SDS011;2225;53.568;13.266;2023-02-03T03:08:28;1.60;;;0.90;;
4424;SDS011;2225;53.568;13.266;2023-02-03T03:11:04;3.60;;;1.30;;
4424;SDS011;2225;53.568;13.266;2023-02-03T03:13:34;1.80;;;1.00;;
4424;SDS011;2225;53.568;13.266;2023-02-03T03:16:08;2.70;;;1.20;;
4424;SDS011;2225;53.568;13.266;2023-02-03T03:18:38;1.83;;;1.00;;
4424;SDS011;2225;53.568;13.266;2023-02-03T03:21:11;2.97;;;1.30;;
4424;SDS011;2225;53.568;13.266;2023-02-03T03:23:45;1.83;;;0.90;;
4424;SDS011;2225;53.568;13.266;2023-02-03T03:26:26;3.83;;;1.40;;
4424;SDS011;2225;53.568;13.266;2023-02-03T03:29:16;2.77;;;1.27;;
4424;SDS011;2225;53.568;13.266;2023-02-03T03:31:49;2.07;;;1.17;;
4424;SDS011;2225;53.568;13.266;2023-02-03T03:34:16;2.83;;;0.80;;
4424;SDS011;2225;53.568;13.266;2023-02-03T03:36:45;1.73;;;0.77;;
4424;SDS011;2225;53.568;13.266;2023-02-03T03:39:25;1.90;;;0.80;;
4424;SDS011;2225;53.568;13.266;2023-02-03T03:42:12;1.83;;;1.10;;
4424;SDS011;2225;53.568;13.266;2023-02-03T03:45:13;1.90;;;1.00;;
4424;SDS011;2225;53.568;13.266;2023-02-03T03:47:52;2.57;;;1.40;;
4424;SDS011;2225;53.568;13.266;2023-02-03T03:50:27;4.07;;;1.40;;
4424;SDS011;2225;53.568;13.266;2023-02-03T03:52:58;2.23;;;0.90;;
4424;SDS011;2225;53.568;13.266;2023-02-03T03:55:28;1.30;;;0.60;;
4424;SDS011;2225;53.568;13.266;2023-02-03T03:58:04;1.83;;;1.03;;
4424;SDS011;2225;53.568;13.266;2023-02-03T04:00:39;2.17;;;0.87;;
4424;SDS011;2225;53.568;13.266;2023-02-03T04:03:15;1.40;;;0.80;;
4424;SDS011;2225;53.568;13.266;2023-02-03T04:05:47;2.50;;;0.90;;
4424;SDS011;2225;53.568;13.266;2023-02-03T04:08:14;1.70;;;1.10;;
4424;SDS011;2225;53.568;13.266;2023-02-03T04:10:42;3.87;;;1.13;;
4424;SDS011;2225;53.568;13.266;2023-02-03T04:13:10;1.60;;;0.97;;
4424;SDS011;2225;53.568;13.266;2023-02-03T04:15:37;1.87;;;0.87;;
4424;SDS011;2225;53.568;13.266;2023-02-03T04:18:04;1.73;;;0.93;;
4424;SDS011;2225;53.568;13.266;2023-02-03T04:20:31;2.10;;;1.07;;
4424;SDS011;2225;53.568;13.266;2023-02-03T04:22:58;2.27;;;1.20;;
4424;SDS011;2225;53.568;13.266;2023-02-03T04:25:25;4.30;;;0.80;;
4424;SDS011;2225;53.568;13.266;2023-02-03T04:27:53;2.33;;;0.97;;
4424;SDS011;2225;53.568;13.266;2023-02-03T04:30:20;2.33;;;0.90;;
4424;SDS011;2225;53.568;13.266;2023-02-03T04:32:47;2.37;;;1.17;;
4424;SDS011;2225;53.568;13.266;2023-02-03T04:35:15;2.17;;;0.97;;
4424;SDS011;2225;53.568;13.266;2023-02-03T04:37:42;2.70;;;1.20;;
4424;SDS011;2225;53.568;13.266;2023-02-03T04:40:09;3.00;;;1.20;;
4424;SDS011;2225;53.568;13.266;2023-02-03T04:42:37;1.43;;;0.80;;
4424;SDS011;2225;53.568;13.266;2023-02-03T04:45:06;2.93;;;1.10;;
4424;SDS011;2225;53.568;13.266;2023-02-03T04:47:38;2.30;;;1.27;;
4424;SDS011;2225;53.568;13.266;2023-02-03T04:50:05;3.47;;;1.50;;
4424;SDS011;2225;53.568;13.266;2023-02-03T04:52:32;3.03;;;1.73;;
4424;SDS011;2225;53.568;13.266;2023-02-03T04:54:59;5.00;;;1.70;;
4424;SDS011;2225;53.568;13.266;2023-02-03T04:57:26;2.43;;;1.20;;
4424;SDS011;2225;53.568;13.266;2023-02-03T04:59:53;2.90;;;1.80;;
4424;SDS011;2225;53.568;13.266;2023-02-03T05:02:20;2.43;;;1.30;;
4424;SDS011;2225;53.568;13.266;2023-02-03T05:04:47;3.80;;;1.77;;
4424;SDS011;2225;53.568;13.266;2023-02-03T05:07:14;3.37;;;1.60;;
4424;SDS011;2225;53.568;13.266;2023-02-03T05:09:40;3.00;;;1.80;;
4424;SDS011;2225;53.568;13.266;2023-02-03T05:12:07;2.47;;;1.40;;
4424;SDS011;2225;53.568;13.266;2023-02-03T05:14:34;3.40;;;1.80;;
4424;SDS011;2225;53.568;13.266;2023-02-03T05:17:01;2.60;;;1.20;;
4424;SDS011;2225;53.568;13.266;2023-02-03T05:19:28;8.13;;;1.63;;
4424;SDS011;2225;53.568;13.266;2023-02-03T05:21:55;5.10;;;1.57;;
4424;SDS011;2225;53.568;13.266;2023-02-03T05:24:22;4.57;;;2.00;;
4424;SDS011;2225;53.568;13.266;2023-02-03T05:26:49;3.40;;;2.27;;
4424;SDS011;2225;53.568;13.266;2023-02-03T05:29:16;4.53;;;2.00;;
4424;SDS011;2225;53.568;13.266;2023-02-03T05:31:42;6.47;;;1.83;;
4424;SDS011;2225;53.568;13.266;2023-02-03T05:34:10;3.40;;;2.20;;
4424;SDS011;2225;53.568;13.266;2023-02-03T05:36:36;3.20;;;2.10;;
4424;SDS011;2225;53.568;13.266;2023-02-03T05:39:03;3.50;;;2.20;;
4424;SDS011;2225;53.568;13.266;2023-02-03T05:41:30;3.33;;;2.20;;
4424;SDS011;2225;53.568;13.266;2023-02-03T05:44:15;4.50;;;2.47;;
4424;SDS011;2225;53.568;13.266;2023-02-03T05:46:43;4.20;;;2.57;;
4424;SDS011;2225;53.568;13.266;2023-02-03T05:49:09;4.60;;;2.73;;
4424;SDS011;2225;53.568;13.266;2023-02-03T05:51:37;4.57;;;2.97;;
4424;SDS011;2225;53.568;13.266;2023-02-03T05:54:04;5.30;;;3.43;;
4424;SDS011;2225;53.568;13.266;2023-02-03T05:56:32;4.87;;;2.83;;
4424;SDS011;2225;53.568;13.266;2023-02-03T05:58:59;3.77;;;2.20;;
4424;SDS011;2225;53.568;13.266;2023-02-03T06:01:26;4.00;;;2.80;;
4424;SDS011;2225;53.568;13.266;2023-02-03T06:03:53;10.03;;;6.67;;
4424;SDS011;2225;53.568;13.266;2023-02-03T06:06:20;5.80;;;4.10;;
4424;SDS011;2225;53.568;13.266;2023-02-03T06:08:47;6.40;;;3.63;;
4424;SDS011;2225;53.568;13.266;2023-02-03T06:11:16;6.10;;;3.50;;
4424;SDS011;2225;53.568;13.266;2023-02-03T06:13:43;5.87;;;3.93;;
4424;SDS011;2225;53.568;13.266;2023-02-03T06:16:10;5.87;;;4.27;;
4424;SDS011;2225;53.568;13.266;2023-02-03T06:18:37;8.30;;;6.33;;
4424;SDS011;2225;53.568;13.266;2023-02-03T06:21:04;10.40;;;5.00;;
4424;SDS011;2225;53.568;13.266;2023-02-03T06:23:31;8.67;;;5.10;;
4424;SDS011;2225;53.568;13.266;2023-02-03T06:25:58;6.77;;;4.50;;
4424;SDS011;2225;53.568;13.266;2023-02-03T06:28:25;7.97;;;5.37;;
4424;SDS011;2225;53.568;13.266;2023-02-03T06:30:52;10.63;;;6.27;;
4424;SDS011;2225;53.568;13.266;2023-02-03T06:33:19;8.07;;;6.03;;
4424;SDS011;2225;53.568;13.266;2023-02-03T06:35:46;10.20;;;6.33;;
4424;SDS011;2225;53.568;13.266;2023-02-03T06:38:13;14.13;;;7.20;;
4424;SDS011;2225;53.568;13.266;2023-02-03T06:40:40;11.40;;;6.87;;
4424;SDS011;2225;53.568;13.266;2023-02-03T06:43:07;11.93;;;7.10;;
4424;SDS011;2225;53.568;13.266;2023-02-03T06:45:34;9.20;;;6.10;;
4424;SDS011;2225;53.568;13.266;2023-02-03T06:48:01;9.83;;;6.00;;
4424;SDS011;2225;53.568;13.266;2023-02-03T06:50:28;8.33;;;5.50;;
4424;SDS011;2225;53.568;13.266;2023-02-03T06:52:55;11.00;;;6.50;;
4424;SDS011;2225;53.568;13.266;2023-02-03T06:55:22;9.90;;;5.43;;
4424;SDS011;2225;53.568;13.266;2023-02-03T06:57:49;8.43;;;5.70;;
4424;SDS011;2225;53.568;13.266;2023-02-03T07:00:17;12.80;;;5.20;;
4424;SDS011;2225;53.568;13.266;2023-02-03T07:02:45;8.50;;;5.60;;
4424;SDS011;2225;53.568;13.266;2023-02-03T07:05:19;10.13;;;4.90;;
4424;SDS011;2225;53.568;13.266;2023-02-03T07:07:47;5.67;;;3.80;;
4424;SDS011;2225;53.568;13.266;2023-02-03T07:10:14;6.33;;;3.80;;
4424;SDS011;2225;53.568;13.266;2023-02-03T07:12:41;5.33;;;3.70;;
4424;SDS011;2225;53.568;13.266;2023-02-03T07:15:09;5.27;;;3.10;;
4424;SDS011;2225;53.568;13.266;2023-02-03T07:17:37;5.63;;;3.03;;
4424;SDS011;2225;53.568;13.266;2023-02-03T07:20:04;5.90;;;2.83;;
4424;SDS011;2225;53.568;13.266;2023-02-03T07:22:32;11.20;;;2.37;;
4424;SDS011;2225;53.568;13.266;2023-02-03T07:24:59;4.60;;;2.30;;
4424;SDS011;2225;53.568;13.266;2023-02-03T07:27:26;3.43;;;1.47;;
4424;SDS011;2225;53.568;13.266;2023-02-03T07:29:54;5.07;;;1.90;;
4424;SDS011;2225;53.568;13.266;2023-02-03T07:32:21;4.37;;;1.90;;
4424;SDS011;2225;53.568;13.266;2023-02-03T07:34:48;4.07;;;1.83;;
4424;SDS011;2225;53.568;13.266;2023-02-03T07:37:15;3.07;;;1.63;;
4424;SDS011;2225;53.568;13.266;2023-02-03T07:39:42;3.53;;;1.33;;
4424;SDS011;2225;53.568;13.266;2023-02-03T07:42:09;3.37;;;1.40;;
4424;SDS011;2225;53.568;13.266;2023-02-03T07:44:41;3.47;;;1.30;;
4424;SDS011;2225;53.568;13.266;2023-02-03T07:47:08;3.07;;;1.20;;
4424;SDS011;2225;53.568;13.266;2023-02-03T07:49:37;2.80;;;1.07;;
4424;SDS011;2225;53.568;13.266;2023-02-03T07:52:04;6.40;;;1.20;;
4424;SDS011;2225;53.568;13.266;2023-02-03T07:54:31;3.50;;;0.80;;
4424;SDS011;2225;53.568;13.266;2023-02-03T07:56:58;2.63;;;0.90;;
4424;SDS011;2225;53.568;13.266;2023-02-03T07:59:25;3.03;;;1.00;;
4424;SDS011;2225;53.568;13.266;2023-02-03T08:01:52;3.47;;;1.00;;
4424;SDS011;2225;53.568;13.266;2023-02-03T08:04:21;2.80;;;0.90;;
4424;SDS011;2225;53.568;13.266;2023-02-03T08:06:49;5.63;;;1.17;;
4424;SDS011;2225;53.568;13.266;2023-02-03T08:09:16;3.30;;;1.20;;
4424;SDS011;2225;53.568;13.266;2023-02-03T08:11:43;2.50;;;0.90;;
4424;SDS011;2225;53.568;13.266;2023-02-03T08:14:10;2.20;;;0.80;;
4424;SDS011;2225;53.568;13.266;2023-02-03T08:16:37;2.63;;;0.80;;
4424;SDS011;2225;53.568;13.266;2023-02-03T08:19:04;5.50;;;0.90;;
4424;SDS011;2225;53.568;13.266;2023-02-03T08:21:31;2.10;;;0.60;;
4424;SDS011;2225;53.568;13.266;2023-02-03T08:23:57;2.47;;;0.97;;
4424;SDS011;2225;53.568;13.266;2023-02-03T08:26:24;3.90;;;0.90;;
4424;SDS011;2225;53.568;13.266;2023-02-03T08:28:51;2.63;;;0.73;;
4424;SDS011;2225;53.568;13.266;2023-02-03T08:31:18;2.67;;;1.00;;
4424;SDS011;2225;53.568;13.266;2023-02-03T08:33:45;2.10;;;0.63;;
4424;SDS011;2225;53.568;13.266;2023-02-03T08:36:12;2.80;;;1.00;;
4424;SDS011;2225;53.568;13.266;2023-02-03T08:38:39;2.30;;;0.80;;
4424;SDS011;2225;53.568;13.266;2023-02-03T08:41:07;2.00;;;0.60;;
4424;SDS011;2225;53.568;13.266;2023-02-03T08:43:37;2.43;;;0.80;;
4424;SDS011;2225;53.568;13.266;2023-02-03T08:46:05;2.27;;;0.70;;
4424;SDS011;2225;53.568;13.266;2023-02-03T08:48:35;1.90;;;0.57;;
4424;SDS011;2225;53.568;13.266;2023-02-03T08:51:08;2.10;;;0.67;;
4424;SDS011;2225;53.568;13.266;2023-02-03T08:53:37;2.13;;;0.60;;
4424;SDS011;2225;53.568;13.266;2023-02-03T08:56:05;2.20;;;0.60;;
4424;SDS011;2225;53.568;13.266;2023-02-03T08:58:36;2.23;;;0.70;;
4424;SDS011;2225;53.568;13.266;2023-02-03T09:01:07;2.43;;;0.70;;
4424;SDS011;2225;53.568;13.266;2023-02-03T09:03:36;2.30;;;0.80;;
4424;SDS011;2225;53.568;13.266;2023-02-03T09:06:04;2.40;;;0.60;;
4424;SDS011;2225;53.568;13.266;2023-02-03T09:08:32;2.43;;;0.70;;
4424;SDS011;2225;53.568;13.266;2023-02-03T09:10:59;2.30;;;0.80;;
4424;SDS011;2225;53.568;13.266;2023-02-03T09:13:26;3.20;;;0.90;;
4424;SDS011;2225;53.568;13.266;2023-02-03T09:15:52;5.90;;;0.90;;
4424;SDS011;2225;53.568;13.266;2023-02-03T09:18:19;4.03;;;0.80;;
4424;SDS011;2225;53.568;13.266;2023-02-03T09:20:46;3.23;;;0.80;;
4424;SDS011;2225;53.568;13.266;2023-02-03T09:23:14;2.77;;;0.83;;
4424;SDS011;2225;53.568;13.266;2023-02-03T09:25:40;2.87;;;0.73;;
4424;SDS011;2225;53.568;13.266;2023-02-03T09:28:12;3.50;;;0.97;;
4424;SDS011;2225;53.568;13.266;2023-02-03T09:30:39;2.20;;;0.60;;
4424;SDS011;2225;53.568;13.266;2023-02-03T09:33:06;3.90;;;1.10;;
4424;SDS011;2225;53.568;13.266;2023-02-03T09:35:33;5.10;;;1.10;;
4424;SDS011;2225;53.568;13.266;2023-02-03T09:38:00;4.50;;;1.37;;
4424;SDS011;2225;53.568;13.266;2023-02-03T09:40:28;14.03;;;1.73;;
4424;SDS011;2225;53.568;13.266;2023-02-03T09:43:09;8.53;;;1.80;;
4424;SDS011;2225;53.568;13.266;2023-02-03T09:46:05;9.20;;;1.97;;
4424;SDS011;2225;53.568;13.266;2023-02-03T09:48:40;13.40;;;3.13;;
4424;SDS011;2225;53.568;13.266;2023-02-03T09:51:22;9.87;;;2.07;;
4424;SDS011;2225;53.568;13.266;2023-02-03T09:54:03;12.60;;;2.90;;
4424;SDS011;2225;53.568;13.266;2023-02-03T09:57:04;13.07;;;2.60;;
4424;SDS011;2225;53.568;13.266;2023-02-03T09:59:39;17.00;;;3.20;;
4424;SDS011;2225;53.568;13.266;2023-02-03T10:08:13;35.70;;;5.10;;
4424;SDS011;2225;53.568;13.266;2023-02-03T10:11:14;33.33;;;4.57;;
4424;SDS011;2225;53.568;13.266;2023-02-03T10:14:16;45.67;;;6.60;;
4424;SDS011;2225;53.568;13.266;2023-02-03T10:17:11;36.13;;;5.30;;
4424;SDS011;2225;53.568;13.266;2023-02-03T10:22:45;47.30;;;6.57;;
4424;SDS011;2225;53.568;13.266;2023-02-03T10:28:17;39.63;;;5.93;;
4424;SDS011;2225;53.568;13.266;2023-02-03T10:30:48;26.97;;;5.37;;
4424;SDS011;2225;53.568;13.266;2023-02-03T10:33:25;43.80;;;6.00;;
4424;SDS011;2225;53.568;13.266;2023-02-03T10:35:59;51.83;;;6.50;;
4424;SDS011;2225;53.568;13.266;2023-02-03T10:41:29;32.20;;;5.70;;
4424;SDS011;2225;53.568;13.266;2023-02-03T10:43:57;37.50;;;5.90;;
4424;SDS011;2225;53.568;13.266;2023-02-03T10:46:34;29.40;;;6.43;;
4424;SDS011;2225;53.568;13.266;2023-02-03T10:49:03;44.40;;;7.30;;
4424;SDS011;2225;53.568;13.266;2023-02-03T10:51:50;30.67;;;6.63;;
4424;SDS011;2225;53.568;13.266;2023-02-03T10:54:30;58.70;;;9.37;;
4424;SDS011;2225;53.568;13.266;2023-02-03T10:57:10;53.60;;;8.43;;
4424;SDS011;2225;53.568;13.266;2023-02-03T10:59:40;43.57;;;7.30;;
4424;SDS011;2225;53.568;13.266;2023-02-03T11:02:22;64.63;;;8.77;;
4424;SDS011;2225;53.568;13.266;2023-02-03T11:07:42;48.63;;;8.83;;
4424;SDS011;2225;53.568;13.266;2023-02-03T11:10:26;56.10;;;8.80;;
4424;SDS011;2225;53.568;13.266;2023-02-03T11:15:52;48.20;;;8.57;;
4424;SDS011;2225;53.568;13.266;2023-02-03T11:18:40;63.20;;;7.87;;
4424;SDS011;2225;53.568;13.266;2023-02-03T11:21:27;43.30;;;7.93;;
4424;SDS011;2225;53.568;13.266;2023-02-03T11:27:04;51.37;;;7.97;;
4424;SDS011;2225;53.568;13.266;2023-02-03T11:29:35;48.53;;;7.57;;
4424;SDS011;2225;53.568;13.266;2023-02-03T11:32:15;37.17;;;6.53;;
4424;SDS011;2225;53.568;13.266;2023-02-03T11:34:55;40.90;;;7.80;;
4424;SDS011;2225;53.568;13.266;2023-02-03T11:37:37;41.33;;;8.13;;
4424;SDS011;2225;53.568;13.266;2023-02-03T11:42:34;46.20;;;7.70;;
4424;SDS011;2225;53.568;13.266;2023-02-03T11:45:13;34.90;;;7.10;;
4424;SDS011;2225;53.568;13.266;2023-02-03T11:47:53;41.70;;;8.20;;
4424;SDS011;2225;53.568;13.266;2023-02-03T11:50:37;53.00;;;7.63;;
4424;SDS011;2225;53.568;13.266;2023-02-03T11:53:32;42.80;;;6.50;;
4424;SDS011;2225;53.568;13.266;2023-02-03T11:56:25;39.93;;;6.87;;
4424;SDS011;2225;53.568;13.266;2023-02-03T11:59:53;44.60;;;8.53;;
4424;SDS011;2225;53.568;13.266;2023-02-03T12:02:39;41.03;;;6.50;;
4424;SDS011;2225;53.568;13.266;2023-02-03T12:15:00;23.00;;;4.70;;
4424;SDS011;2225;53.568;13.266;2023-02-03T12:20:37;38.03;;;5.90;;
4424;SDS011;2225;53.568;13.266;2023-02-03T12:23:44;39.50;;;6.43;;
4424;SDS011;2225;53.568;13.266;2023-02-03T12:26:29;37.70;;;6.87;;
4424;SDS011;2225;53.568;13.266;2023-02-03T12:29:14;37.10;;;5.50;;
4424;SDS011;2225;53.568;13.266;2023-02-03T12:32:00;31.23;;;6.27;;
4424;SDS011;2225;53.568;13.266;2023-02-03T12:34:46;29.10;;;5.70;;
4424;SDS011;2225;53.568;13.266;2023-02-03T12:37:28;29.93;;;5.53;;
4424;SDS011;2225;53.568;13.266;2023-02-03T12:40:25;29.97;;;6.20;;
4424;SDS011;2225;53.568;13.266;2023-02-03T12:45:59;34.33;;;6.50;;
4424;SDS011;2225;53.568;13.266;2023-02-03T12:48:44;37.70;;;5.77;;
4424;SDS011;2225;53.568;13.266;2023-02-03T12:51:25;40.67;;;6.70;;
4424;SDS011;2225;53.568;13.266;2023-02-03T12:57:05;39.00;;;6.53;;
4424;SDS011;2225;53.568;13.266;2023-02-03T12:59:53;33.37;;;7.13;;
4424;SDS011;2225;53.568;13.266;2023-02-03T13:03:04;55.37;;;7.70;;
4424;SDS011;2225;53.568;13.266;2023-02-03T13:05:46;35.80;;;6.50;;
4424;SDS011;2225;53.568;13.266;2023-02-03T13:08:43;39.03;;;7.20;;
4424;SDS011;2225;53.568;13.266;2023-02-03T13:11:42;51.90;;;8.73;;
4424;SDS011;2225;53.568;13.266;2023-02-03T13:17:16;48.33;;;7.27;;
4424;SDS011;2225;53.568;13.266;2023-02-03T13:19:51;42.60;;;7.70;;
4424;SDS011;2225;53.568;13.266;2023-02-03T13:22:23;44.93;;;8.20;;
4424;SDS011;2225;53.568;13.266;2023-02-03T13:24:55;53.40;;;7.73;;
4424;SDS011;2225;53.568;13.266;2023-02-03T13:27:58;39.90;;;7.50;;
4424;SDS011;2225;53.568;13.266;2023-02-03T13:31:08;43.33;;;7.17;;
4424;SDS011;2225;53.568;13.266;2023-02-03T13:34:09;48.40;;;8.50;;
4424;SDS011;2225;53.568;13.266;2023-02-03T13:37:23;46.60;;;8.10;;
4424;SDS011;2225;53.568;13.266;2023-02-03T13:40:03;51.97;;;7.60;;
4424;SDS011;2225;53.568;13.266;2023-02-03T13:42:40;39.97;;;7.27;;
4424;SDS011;2225;53.568;13.266;2023-02-03T13:45:58;39.10;;;7.30;;
4424;SDS011;2225;53.568;13.266;2023-02-03T13:48:16;40.30;;;6.00;;
4424;SDS011;2225;53.568;13.266;2023-02-03T13:50:48;41.90;;;7.57;;
4424;SDS011;2225;53.568;13.266;2023-02-03T13:53:31;40.03;;;6.00;;
4424;SDS011;2225;53.568;13.266;2023-02-03T13:56:20;35.23;;;5.90;;
4424;SDS011;2225;53.568;13.266;2023-02-03T13:59:01;29.30;;;5.43;;
4424;SDS011;2225;53.568;13.266;2023-02-03T14:01:41;29.63;;;5.70;;
4424;SDS011;2225;53.568;13.266;2023-02-03T14:09:18;35.50;;;6.97;;
4424;SDS011;2225;53.568;13.266;2023-02-03T14:11:48;45.10;;;7.60;;
4424;SDS011;2225;53.568;13.266;2023-02-03T14:16:49;55.13;;;7.93;;
4424;SDS011;2225;53.568;13.266;2023-02-03T14:21:48;35.10;;;6.63;;
4424;SDS011;2225;53.568;13.266;2023-02-03T14:24:33;36.67;;;6.10;;
4424;SDS011;2225;53.568;13.266;2023-02-03T14:27:05;39.37;;;6.00;;
4424;SDS011;2225;53.568;13.266;2023-02-03T14:30:11;43.37;;;6.17;;
4424;SDS011;2225;53.568;13.266;2023-02-03T14:32:48;40.90;;;7.17;;
4424;SDS011;2225;53.568;13.266;2023-02-03T14:35:22;39.60;;;8.40;;
4424;SDS011;2225;53.568;13.266;2023-02-03T14:37:56;40.77;;;8.13;;
4424;SDS011;2225;53.568;13.266;2023-02-03T14:40:36;33.93;;;6.73;;
4424;SDS011;2225;53.568;13.266;2023-02-03T14:43:31;40.60;;;6.37;;
4424;SDS011;2225;53.568;13.266;2023-02-03T14:46:23;24.93;;;5.43;;
4424;SDS011;2225;53.568;13.266;2023-02-03T14:52:22;31.93;;;6.23;;
4424;SDS011;2225;53.568;13.266;2023-02-03T14:57:50;38.60;;;6.70;;
4424;SDS011;2225;53.568;13.266;2023-02-03T15:00:31;40.80;;;6.93;;
4424;SDS011;2225;53.568;13.266;2023-02-03T15:05:38;34.93;;;8.37;;
4424;SDS011;2225;53.568;13.266;2023-02-03T15:16:54;37.83;;;6.37;;
4424;SDS011;2225;53.568;13.266;2023-02-03T15:19:55;32.23;;;6.43;;
4424;SDS011;2225;53.568;13.266;2023-02-03T15:22:24;44.87;;;7.37;;
4424;SDS011;2225;53.568;13.266;2023-02-03T15:25:00;25.50;;;5.73;;
4424;SDS011;2225;53.568;13.266;2023-02-03T15:27:30;37.23;;;5.30;;
4424;SDS011;2225;53.568;13.266;2023-02-03T15:29:58;26.00;;;5.33;;
4424;SDS011;2225;53.568;13.266;2023-02-03T15:32:43;34.60;;;6.77;;
4424;SDS011;2225;53.568;13.266;2023-02-03T15:35:23;34.03;;;6.60;;
4424;SDS011;2225;53.568;13.266;2023-02-03T15:37:53;39.87;;;6.53;;
4424;SDS011;2225;53.568;13.266;2023-02-03T15:40:29;47.73;;;6.20;;
4424;SDS011;2225;53.568;13.266;2023-02-03T15:43:26;49.60;;;7.60;;
4424;SDS011;2225;53.568;13.266;2023-02-03T15:48:57;36.13;;;7.07;;
4424;SDS011;2225;53.568;13.266;2023-02-03T15:51:39;46.83;;;7.23;;
4424;SDS011;2225;53.568;13.266;2023-02-03T15:56:43;49.80;;;7.30;;
4424;SDS011;2225;53.568;13.266;2023-02-03T15:59:28;43.43;;;6.93;;
4424;SDS011;2225;53.568;13.266;2023-02-03T16:02:00;66.50;;;8.60;;
4424;SDS011;2225;53.568;13.266;2023-02-03T16:04:38;41.87;;;8.13;;
4424;SDS011;2225;53.568;13.266;2023-02-03T16:07:05;46.67;;;8.03;;
4424;SDS011;2225;53.568;13.266;2023-02-03T16:09:43;36.40;;;7.30;;
4424;SDS011;2225;53.568;13.266;2023-02-03T16:12:17;51.97;;;6.90;;
4424;SDS011;2225;53.568;13.266;2023-02-03T16:14:52;35.77;;;6.67;;
4424;SDS011;2225;53.568;13.266;2023-02-03T16:17:23;43.33;;;8.13;;
4424;SDS011;2225;53.568;13.266;2023-02-03T16:22:38;31.70;;;7.27;;
4424;SDS011;2225;53.568;13.266;2023-02-03T16:25:16;51.47;;;7.10;;
4424;SDS011;2225;53.568;13.266;2023-02-03T16:28:33;36.17;;;6.97;;
4424;SDS011;2225;53.568;13.266;2023-02-03T16:31:08;39.40;;;6.73;;
4424;SDS011;2225;53.568;13.266;2023-02-03T16:33:59;40.23;;;6.73;;
4424;SDS011;2225;53.568;13.266;2023-02-03T16:36:58;34.93;;;7.30;;
4424;SDS011;2225;53.568;13.266;2023-02-03T16:39:43;49.40;;;8.97;;
4424;SDS011;2225;53.568;13.266;2023-02-03T16:42:35;33.63;;;7.50;;
4424;SDS011;2225;53.568;13.266;2023-02-03T16:45:23;39.43;;;7.37;;
4424;SDS011;2225;53.568;13.266;2023-02-03T16:48:10;37.80;;;6.47;;
4424;SDS011;2225;53.568;13.266;2023-02-03T16:50:56;64.87;;;8.27;;
4424;SDS011;2225;53.568;13.266;2023-02-03T16:53:32;46.43;;;8.50;;
4424;SDS011;2225;53.568;13.266;2023-02-03T16:56:00;62.00;;;9.47;;
4424;SDS011;2225;53.568;13.266;2023-02-03T16:58:30;52.40;;;8.83;;
4424;SDS011;2225;53.568;13.266;2023-02-03T17:00:58;39.13;;;7.73;;
4424;SDS011;2225;53.568;13.266;2023-02-03T17:03:28;39.30;;;6.37;;
4424;SDS011;2225;53.568;13.266;2023-02-03T17:06:00;51.83;;;7.73;;
4424;SDS011;2225;53.568;13.266;2023-02-03T17:08:34;48.97;;;7.17;;
4424;SDS011;2225;53.568;13.266;2023-02-03T17:11:07;46.77;;;7.70;;
4424;SDS011;2225;53.568;13.266;2023-02-03T17:13:40;47.00;;;8.50;;
4424;SDS011;2225;53.568;13.266;2023-02-03T17:16:09;41.63;;;7.80;;
4424;SDS011;2225;53.568;13.266;2023-02-03T17:18:42;38.10;;;6.87;;